SBBR/BSB METAR and TAF weather

Enter ICAO airport designator
Station Type Date Time Source
SBBR METAR 2021/09/16 10:00 UTC NOAA

SBBR 161000Z 00000KT 7000 NSC 17/09 Q1023


Station Type Date Time Source
SBBR Decoded METAR 2021/09/16 10:00 UTC NOAA

Brasilia Aeroporto , Brazil (SBBR) 15-52S 047-56W 1061M
Sep 16, 2021 - 06:00 AM EDT / 2021.09.16 1000 UTC
Wind: Calm:0
Visibility: 4 mile(s):0
Temperature: 62 F (17 C)
Dew Point: 48 F (9 C)
Relative Humidity: 59%
Pressure (altimeter): 30.21 in. Hg (1023 hPa)
ob: SBBR 161000Z 00000KT 7000 NSC 17/09 Q1023
cycle: 10

Station Type Date Time Source
SBBR TAF 2021/09/16 12:09 UTC NOAA

TAF TAF SBBR 161000Z 1612/1712 VRB02KT 8000 NSC TX32/1618Z TN20/1709Z
BECMG 1612/1614 04010KT
TEMPO 1617/1620 35004KT FEW045
BECMG 1623/1701 VRB03KT CAVOK
RMK PHH

Example: see airport list